Arnott, Wisconsin
Current Conditions -  °F | °C
As of 7:35 PM on Monday 20 Oct 2014 (Local Time) from KSTE Reporting Station
Overcast Overcast  
Wind Chill:   Ceiling: 4400
Heat Index:   Visibility: 10mi
Dew Point:   Wind: 5mph
Humidity: 71%   Direction: 330°NNW
Pressure: 30.03"   Gusts: NA
Location:  44.5531°N, 89.5186°W
Report Text: KSTE 210035Z AUTO 33004KT 10SM OVC044 09/04 A3003 RMK AO2 T00860037
Loading
Personal Weather Stations






























Interactive Weather Map
Tropical Storm Tracking
New forecast layout! Learn more

10-Day Weather Forecast

Advertisements
Track Severe Weather on mobile